createdAt,value
2018-10-03T00:00:05.325Z,13.62
2018-10-03T00:01:05.293Z,13.59
2018-10-03T00:02:05.277Z,13.54
2018-10-03T00:03:05.265Z,13.54
2018-10-03T00:04:05.257Z,13.51
2018-10-03T00:05:05.272Z,13.54
2018-10-03T00:06:05.235Z,13.55
2018-10-03T00:07:05.220Z,13.51
2018-10-03T00:08:05.209Z,13.47
2018-10-03T00:09:05.197Z,13.54
2018-10-03T00:10:05.207Z,13.54
2018-10-03T00:11:05.175Z,13.58
2018-10-03T00:12:05.174Z,13.54
2018-10-03T00:13:05.153Z,13.47
2018-10-03T00:14:05.145Z,13.56
2018-10-03T00:15:05.151Z,13.59
2018-10-03T00:16:05.123Z,13.49
2018-10-03T00:17:05.107Z,13.59
2018-10-03T00:18:05.109Z,13.61
2018-10-03T00:19:05.103Z,13.47
2018-10-03T00:20:05.098Z,13.52
2018-10-03T00:21:05.066Z,13.54
2018-10-03T00:22:05.048Z,13.52
2018-10-03T00:23:05.046Z,13.69
2018-10-03T00:24:05.027Z,13.58
2018-10-03T00:25:05.038Z,13.59
2018-10-03T00:26:05.038Z,13.56
2018-10-03T00:27:04.994Z,13.61
2018-10-03T00:28:04.983Z,13.59
2018-10-03T00:29:04.978Z,13.43
2018-10-03T00:30:04.990Z,13.46
2018-10-03T00:31:04.953Z,13.47
2018-10-03T00:32:04.950Z,13.55
2018-10-03T00:33:04.944Z,13.44
2018-10-03T00:34:04.932Z,13.44
2018-10-03T00:35:04.929Z,13.49
2018-10-03T00:36:04.894Z,13.46
2018-10-03T00:37:04.882Z,13.40
2018-10-03T00:38:04.894Z,13.47
2018-10-03T00:39:04.868Z,13.37
2018-10-03T00:40:04.877Z,13.46
2018-10-03T00:41:04.843Z,13.47
2018-10-03T00:42:04.830Z,13.52
2018-10-03T00:43:04.815Z,13.54
2018-10-03T00:44:04.814Z,13.65
2018-10-03T00:45:04.839Z,13.58
2018-10-03T00:46:04.780Z,13.59
2018-10-03T00:47:04.771Z,13.59
2018-10-03T00:48:04.761Z,13.61
2018-10-03T00:49:04.749Z,13.49
2018-10-03T00:50:04.759Z,13.63
2018-10-03T00:51:04.735Z,13.49
2018-10-03T00:52:04.715Z,13.58
2018-10-03T00:53:04.703Z,13.55
2018-10-03T00:54:04.693Z,13.56
2018-10-03T00:55:04.708Z,13.56
2018-10-03T00:56:04.669Z,13.54
2018-10-03T00:57:04.674Z,13.44
2018-10-03T00:58:04.647Z,13.51
2018-10-03T00:59:04.638Z,13.55
2018-10-03T01:00:04.646Z,13.52
2018-10-03T01:01:04.638Z,13.43
2018-10-03T01:02:04.608Z,13.49
2018-10-03T01:03:04.594Z,13.58
2018-10-03T01:04:04.581Z,13.51
2018-10-03T01:05:04.601Z,13.56
2018-10-03T01:06:04.562Z,13.58
2018-10-03T01:07:04.577Z,13.55
2018-10-03T01:08:04.538Z,13.56
2018-10-03T01:09:04.525Z,13.58
2018-10-03T01:10:04.534Z,13.54
2018-10-03T01:11:04.500Z,13.56
2018-10-03T01:12:04.496Z,13.59
2018-10-03T01:13:04.497Z,13.62
2018-10-03T01:14:04.469Z,13.69
2018-10-03T01:15:04.480Z,13.70
2018-10-03T01:16:04.455Z,13.70
2018-10-03T01:17:04.440Z,13.67
2018-10-03T01:18:04.425Z,13.70
2018-10-03T01:19:04.411Z,13.56
2018-10-03T01:20:04.460Z,13.67
2018-10-03T01:21:04.389Z,13.73
2018-10-03T01:22:04.383Z,13.70
2018-10-03T01:23:04.373Z,13.69
2018-10-03T01:24:04.355Z,13.59
2018-10-03T01:25:04.372Z,13.58
2018-10-03T01:26:04.340Z,13.65
2018-10-03T01:27:04.361Z,13.59
2018-10-03T01:28:04.320Z,13.59
2018-10-03T01:29:04.305Z,13.71
2018-10-03T01:30:04.318Z,13.70
2018-10-03T01:31:04.280Z,13.62
2018-10-03T01:32:04.267Z,13.59
2018-10-03T01:33:04.275Z,13.59
2018-10-03T01:34:04.273Z,13.71
2018-10-03T01:35:04.259Z,13.58
2018-10-03T01:36:04.251Z,13.69
2018-10-03T01:37:04.211Z,13.59
2018-10-03T01:38:04.200Z,13.70
2018-10-03T01:39:04.190Z,13.63
2018-10-03T01:40:04.193Z,13.55
2018-10-03T01:41:04.201Z,13.54
2018-10-03T01:42:04.157Z,13.47
2018-10-03T01:43:04.146Z,13.54
2018-10-03T01:44:04.133Z,13.52
2018-10-03T01:45:04.120Z,13.54
2018-10-03T01:46:04.129Z,13.54
2018-10-03T01:47:04.109Z,13.40
2018-10-03T01:48:04.088Z,13.55
2018-10-03T01:49:04.077Z,13.44
2018-10-03T01:50:04.068Z,13.49
2018-10-03T01:51:04.085Z,13.46
2018-10-03T01:52:04.045Z,13.44
2018-10-03T01:53:04.066Z,13.46
2018-10-03T01:54:04.016Z,13.49
2018-10-03T01:55:04.009Z,13.49
2018-10-03T01:56:04.029Z,13.47
2018-10-03T01:57:03.983Z,13.54
2018-10-03T01:58:03.977Z,13.56
2018-10-03T01:59:03.971Z,13.56
2018-10-03T02:00:03.979Z,13.61
2018-10-03T02:01:03.969Z,13.61
2018-10-03T02:02:03.933Z,13.47
2018-10-03T02:03:03.925Z,13.47
2018-10-03T02:04:03.912Z,13.46
2018-10-03T02:05:03.900Z,13.49
2018-10-03T02:06:03.927Z,13.47
2018-10-03T02:07:03.876Z,13.46
2018-10-03T02:08:03.866Z,13.51
2018-10-03T02:09:03.860Z,13.41
2018-10-03T02:10:03.841Z,13.56
2018-10-03T02:11:03.856Z,13.51
2018-10-03T02:12:03.837Z,13.55
2018-10-03T02:13:03.809Z,13.54
2018-10-03T02:14:03.793Z,13.55
2018-10-03T02:15:03.790Z,13.58
2018-10-03T02:16:03.799Z,13.56
2018-10-03T02:17:03.809Z,13.61
2018-10-03T02:18:03.776Z,13.59
2018-10-03T02:19:03.740Z,13.56
2018-10-03T02:20:03.729Z,13.54
2018-10-03T02:21:03.744Z,13.49
2018-10-03T02:22:03.715Z,13.47
2018-10-03T02:23:03.698Z,13.43
2018-10-03T02:24:03.694Z,13.33
2018-10-03T02:25:03.673Z,13.33
2018-10-03T02:26:03.685Z,13.32
2018-10-03T02:27:03.656Z,13.33
2018-10-03T02:28:03.641Z,13.14
2018-10-03T02:29:03.646Z,13.15
2018-10-03T02:30:03.623Z,13.21
2018-10-03T02:31:03.630Z,13.18
2018-10-03T02:32:03.598Z,13.15
2018-10-03T02:33:03.587Z,13.12
2018-10-03T02:34:03.579Z,13.15
2018-10-03T02:35:03.564Z,13.12
2018-10-03T02:36:03.590Z,13.14
2018-10-03T02:37:03.542Z,13.12
2018-10-03T02:38:03.528Z,13.20
2018-10-03T02:39:03.516Z,13.24
2018-10-03T02:40:03.509Z,13.24
2018-10-03T02:41:03.519Z,13.30
2018-10-03T02:42:03.497Z,13.17
2018-10-03T02:43:03.479Z,13.18
2018-10-03T02:44:03.468Z,13.18
2018-10-03T02:45:03.458Z,13.18
2018-10-03T02:46:03.469Z,13.18
2018-10-03T02:47:03.428Z,13.18
2018-10-03T02:48:03.421Z,13.14
2018-10-03T02:49:03.414Z,13.07
2018-10-03T02:50:03.415Z,13.02
2018-10-03T02:51:03.415Z,12.92
2018-10-03T02:52:03.375Z,12.92
2018-10-03T02:53:03.366Z,13.02
2018-10-03T02:54:03.361Z,13.09
2018-10-03T02:55:03.338Z,13.09
2018-10-03T02:56:03.349Z,13.06
2018-10-03T02:57:03.327Z,13.11
2018-10-03T02:58:03.392Z,13.07
2018-10-03T02:59:03.295Z,13.11
2018-10-03T03:00:03.290Z,13.03
2018-10-03T03:01:03.304Z,13.07
2018-10-03T03:02:03.260Z,13.14
2018-10-03T03:03:03.254Z,13.04
2018-10-03T03:04:03.252Z,13.09
2018-10-03T03:05:03.230Z,13.20
2018-10-03T03:06:03.239Z,13.17
2018-10-03T03:07:03.217Z,13.15
2018-10-03T03:08:03.193Z,13.20
2018-10-03T03:09:03.262Z,13.14
2018-10-03T03:10:03.191Z,13.14
2018-10-03T03:11:03.183Z,13.14
2018-10-03T03:12:03.148Z,13.22
2018-10-03T03:13:03.142Z,13.20
2018-10-03T03:14:03.125Z,13.20
2018-10-03T03:15:03.116Z,13.21
2018-10-03T03:16:03.143Z,13.20
2018-10-03T03:17:03.119Z,13.21
2018-10-03T03:18:03.093Z,13.14
2018-10-03T03:19:03.080Z,13.20
2018-10-03T03:20:03.061Z,13.24
2018-10-03T03:21:03.052Z,13.15
2018-10-03T03:22:03.073Z,13.18
2018-10-03T03:23:03.047Z,13.06
2018-10-03T03:24:03.016Z,13.15
2018-10-03T03:25:03.005Z,13.17
2018-10-03T03:26:02.995Z,13.22
2018-10-03T03:27:03.001Z,13.15
2018-10-03T03:28:02.975Z,13.21
2018-10-03T03:29:02.991Z,13.18
2018-10-03T03:30:02.954Z,13.15
2018-10-03T03:31:02.936Z,13.15
2018-10-03T03:32:02.956Z,13.18
2018-10-03T03:33:02.913Z,13.20
2018-10-03T03:34:02.905Z,13.24
2018-10-03T03:35:02.898Z,13.21
2018-10-03T03:36:02.897Z,13.22
2018-10-03T03:37:02.907Z,13.21
2018-10-03T03:38:02.862Z,13.20
2018-10-03T03:39:02.848Z,13.15
2018-10-03T03:40:02.837Z,13.17
2018-10-03T03:41:02.824Z,13.14
2018-10-03T03:42:02.832Z,13.03
2018-10-03T03:43:02.808Z,13.06
2018-10-03T03:44:02.799Z,13.14
2018-10-03T03:45:02.781Z,13.03
2018-10-03T03:46:02.774Z,13.04
2018-10-03T03:47:02.777Z,13.17
2018-10-03T03:48:02.745Z,13.14
2018-10-03T03:49:02.730Z,13.15
2018-10-03T03:50:02.745Z,13.18
2018-10-03T03:51:02.716Z,13.18
2018-10-03T03:52:02.730Z,13.11
2018-10-03T03:53:02.692Z,13.09
2018-10-03T03:54:02.684Z,13.11
2018-10-03T03:55:02.666Z,13.04
2018-10-03T03:56:02.657Z,13.04
2018-10-03T03:57:02.687Z,13.04
2018-10-03T03:58:02.635Z,13.07
2018-10-03T03:59:02.624Z,13.06
2018-10-03T04:00:02.624Z,12.99
2018-10-03T04:01:02.607Z,13.07
2018-10-03T04:02:02.616Z,13.11
2018-10-03T04:03:02.589Z,12.99
2018-10-03T04:04:02.568Z,13.07
2018-10-03T04:05:02.557Z,13.11
2018-10-03T04:06:02.544Z,13.09
2018-10-03T04:07:02.556Z,13.06
2018-10-03T04:08:02.522Z,13.12
2018-10-03T04:09:02.551Z,13.02
2018-10-03T04:10:02.505Z,13.06
2018-10-03T04:11:02.488Z,13.06
2018-10-03T04:12:02.508Z,13.02
2018-10-03T04:13:02.469Z,13.02
2018-10-03T04:14:02.459Z,13.00
2018-10-03T04:15:02.462Z,12.88
2018-10-03T04:16:02.434Z,12.85
2018-10-03T04:17:02.460Z,12.74
2018-10-03T04:18:02.413Z,12.64
2018-10-03T04:19:02.404Z,12.77
2018-10-03T04:20:02.388Z,12.78
2018-10-03T04:21:02.383Z,12.64
2018-10-03T04:22:02.411Z,12.66
2018-10-03T04:23:02.355Z,12.75
2018-10-03T04:24:02.346Z,12.70
2018-10-03T04:25:02.332Z,12.70
2018-10-03T04:26:02.317Z,12.70
2018-10-03T04:27:02.336Z,12.77
2018-10-03T04:28:02.324Z,12.77
2018-10-03T04:29:02.290Z,12.74
2018-10-03T04:30:02.277Z,12.67
2018-10-03T04:31:02.264Z,12.67
2018-10-03T04:32:02.275Z,12.62
2018-10-03T04:33:02.241Z,12.67
2018-10-03T04:34:02.261Z,12.74
2018-10-03T04:35:02.222Z,12.62
2018-10-03T04:36:02.209Z,12.64
2018-10-03T04:37:02.222Z,12.56
2018-10-03T04:38:02.186Z,12.67
2018-10-03T04:39:02.175Z,12.70
2018-10-03T04:40:02.169Z,12.64
2018-10-03T04:41:02.166Z,12.67
2018-10-03T04:42:02.213Z,12.60
2018-10-03T04:43:02.129Z,12.66
2018-10-03T04:44:02.128Z,12.60
2018-10-03T04:45:02.114Z,12.71
2018-10-03T04:46:02.101Z,12.64
2018-10-03T04:47:02.126Z,12.75
2018-10-03T04:48:02.082Z,12.67
2018-10-03T04:49:02.175Z,12.66
2018-10-03T04:50:02.054Z,12.64
2018-10-03T04:51:02.040Z,12.69
2018-10-03T04:52:02.064Z,12.59
2018-10-03T04:53:02.018Z,12.62
2018-10-03T04:54:02.025Z,12.64
2018-10-03T04:55:01.996Z,12.66
2018-10-03T04:56:01.985Z,12.62
2018-10-03T04:57:01.975Z,12.77
2018-10-03T04:58:01.998Z,12.69
2018-10-03T04:59:01.951Z,12.66
2018-10-03T05:00:01.945Z,12.67
2018-10-03T05:01:01.952Z,12.70
2018-10-03T05:02:01.919Z,12.60
2018-10-03T05:03:01.926Z,12.67
2018-10-03T05:04:01.900Z,12.66
2018-10-03T05:05:01.887Z,12.64
2018-10-03T05:06:01.873Z,12.63
2018-10-03T05:07:01.893Z,12.64
2018-10-03T05:08:01.875Z,12.59
2018-10-03T05:09:01.849Z,12.67
2018-10-03T05:10:01.833Z,12.62
2018-10-03T05:11:01.817Z,12.62
2018-10-03T05:12:01.806Z,12.66
2018-10-03T05:13:01.830Z,12.62
2018-10-03T05:14:01.786Z,12.64
2018-10-03T05:15:01.780Z,12.64
2018-10-03T05:16:01.764Z,12.67
2018-10-03T05:17:01.757Z,12.66
2018-10-03T05:18:01.760Z,12.74
2018-10-03T05:19:01.728Z,12.81
2018-10-03T05:20:01.716Z,12.74
2018-10-03T05:21:01.718Z,12.77
2018-10-03T05:22:01.697Z,12.67
2018-10-03T05:23:01.705Z,12.63
2018-10-03T05:24:01.673Z,12.71
2018-10-03T05:25:01.667Z,12.67
2018-10-03T05:26:01.654Z,12.59
2018-10-03T05:27:01.638Z,12.56
2018-10-03T05:28:01.734Z,12.54
2018-10-03T05:29:01.625Z,12.49
2018-10-03T05:30:01.606Z,12.57
2018-10-03T05:31:01.592Z,12.54
2018-10-03T05:32:01.580Z,12.56
2018-10-03T05:33:01.606Z,12.54
2018-10-03T05:34:01.564Z,12.57
2018-10-03T05:35:01.548Z,12.52
2018-10-03T05:36:01.592Z,12.57
2018-10-03T05:37:01.525Z,12.56
2018-10-03T05:38:01.540Z,12.74
2018-10-03T05:39:01.503Z,12.64
2018-10-03T05:40:01.498Z,12.64
2018-10-03T05:41:01.514Z,12.52
2018-10-03T05:42:01.473Z,12.64
2018-10-03T05:43:01.488Z,12.67
2018-10-03T05:44:01.452Z,12.64
2018-10-03T05:45:01.440Z,12.57
2018-10-03T05:46:01.424Z,12.59
2018-10-03T05:47:01.423Z,12.59
2018-10-03T05:48:01.424Z,12.59
2018-10-03T05:49:01.393Z,12.57
2018-10-03T05:50:01.386Z,12.59
2018-10-03T05:51:01.373Z,12.49
2018-10-03T05:52:01.363Z,12.56
2018-10-03T05:53:01.402Z,12.56
2018-10-03T05:54:01.339Z,12.67
2018-10-03T05:55:01.327Z,12.64
2018-10-03T05:56:01.313Z,12.59
2018-10-03T05:57:01.306Z,12.52
2018-10-03T05:58:01.314Z,12.41
2018-10-03T05:59:01.278Z,12.44
2018-10-03T06:00:01.291Z,12.48
2018-10-03T06:01:01.259Z,12.31
2018-10-03T06:02:01.246Z,12.29
2018-10-03T06:03:01.260Z,12.31
2018-10-03T06:04:01.226Z,12.46
2018-10-03T06:05:01.214Z,12.42
2018-10-03T06:06:01.213Z,12.44
2018-10-03T06:07:01.190Z,12.46
2018-10-03T06:08:01.203Z,12.49
2018-10-03T06:09:01.169Z,12.49
2018-10-03T06:10:01.165Z,12.46
2018-10-03T06:11:01.147Z,12.38
2018-10-03T06:12:01.208Z,12.49
2018-10-03T06:13:01.147Z,12.29
2018-10-03T06:14:01.112Z,12.51
2018-10-03T06:15:01.100Z,12.48
2018-10-03T06:16:01.097Z,12.46
2018-10-03T06:17:01.077Z,12.54
2018-10-03T06:18:01.088Z,12.52
2018-10-03T06:19:01.073Z,12.44
2018-10-03T06:20:01.052Z,12.44
2018-10-03T06:21:01.030Z,12.39
2018-10-03T06:22:01.019Z,12.37
2018-10-03T06:23:01.033Z,12.31
2018-10-03T06:24:01.005Z,12.34
2018-10-03T06:25:00.986Z,12.42
2018-10-03T06:26:00.997Z,12.42
2018-10-03T06:27:00.984Z,12.30
2018-10-03T06:28:00.993Z,12.41
2018-10-03T06:29:00.947Z,12.51
2018-10-03T06:30:00.934Z,12.49
2018-10-03T06:31:00.925Z,12.42
2018-10-03T06:32:00.906Z,12.45
2018-10-03T06:33:00.922Z,12.38
2018-10-03T06:34:00.890Z,12.41
2018-10-03T06:35:00.877Z,12.45
2018-10-03T06:36:00.870Z,12.37
2018-10-03T06:37:00.856Z,12.33
2018-10-03T06:38:00.883Z,12.26
2018-10-03T06:39:00.836Z,12.19
2018-10-03T06:40:00.830Z,12.26
2018-10-03T06:41:00.816Z,12.24
2018-10-03T06:42:00.811Z,12.19
2018-10-03T06:43:00.786Z,12.23
2018-10-03T06:44:00.799Z,12.24
2018-10-03T06:45:00.769Z,12.21
2018-10-03T06:46:00.755Z,12.16
2018-10-03T06:47:00.745Z,12.26
2018-10-03T06:48:00.732Z,12.23
2018-10-03T06:49:00.758Z,12.29
2018-10-03T06:50:00.708Z,12.31
2018-10-03T06:51:00.705Z,12.31
2018-10-03T06:52:00.687Z,12.37
2018-10-03T06:53:00.675Z,12.39
2018-10-03T06:54:00.694Z,12.34
2018-10-03T06:55:00.670Z,12.34
2018-10-03T06:56:00.641Z,12.38
2018-10-03T06:57:00.694Z,12.29
2018-10-03T06:58:00.620Z,12.33
2018-10-03T06:59:00.631Z,12.34
2018-10-03T07:00:00.593Z,12.30
2018-10-03T07:01:00.599Z,12.24
2018-10-03T07:02:00.575Z,12.24
2018-10-03T07:03:00.563Z,12.26
2018-10-03T07:04:00.572Z,12.33
2018-10-03T07:05:00.546Z,12.41
2018-10-03T07:06:00.542Z,12.52
2018-10-03T07:07:00.526Z,12.54
2018-10-03T07:08:00.527Z,12.54
2018-10-03T07:09:00.539Z,12.52
2018-10-03T07:10:00.487Z,12.54
2018-10-03T07:11:00.479Z,12.56
2018-10-03T07:12:00.465Z,12.64
2018-10-03T07:13:00.467Z,12.66
2018-10-03T07:14:00.462Z,12.69
2018-10-03T07:15:00.435Z,12.67
2018-10-03T07:16:00.420Z,12.64
2018-10-03T07:17:00.409Z,12.63
2018-10-03T07:18:00.397Z,12.52
2018-10-03T07:19:00.404Z,12.64
2018-10-03T07:20:00.397Z,12.60
2018-10-03T07:21:00.360Z,12.63
2018-10-03T07:22:00.394Z,12.70
2018-10-03T07:23:00.338Z,12.71
2018-10-03T07:24:00.354Z,12.69
2018-10-03T07:25:00.316Z,12.74
2018-10-03T07:26:00.351Z,12.75
2018-10-03T07:27:00.297Z,12.79
2018-10-03T07:28:00.296Z,12.84
2018-10-03T07:29:00.296Z,12.74
2018-10-03T07:30:00.265Z,12.75
2018-10-03T07:31:00.250Z,12.85
2018-10-03T07:32:00.239Z,12.93
2018-10-03T07:33:00.228Z,12.89
2018-10-03T07:34:00.237Z,12.96
2018-10-03T07:35:00.221Z,12.81
2018-10-03T07:36:00.197Z,12.85
2018-10-03T07:37:00.184Z,12.89
2018-10-03T07:38:00.175Z,12.85
2018-10-03T07:39:00.182Z,12.92
2018-10-03T07:40:00.148Z,12.95
2018-10-03T07:41:00.178Z,12.89
2018-10-03T07:42:00.127Z,12.96
2018-10-03T07:43:00.117Z,12.95
2018-10-03T07:44:00.148Z,12.87
2018-10-03T07:45:00.091Z,12.92
2018-10-03T07:46:00.084Z,12.82
2018-10-03T07:47:00.079Z,12.74
2018-10-03T07:48:00.123Z,12.70
2018-10-03T07:49:00.079Z,12.69
2018-10-03T07:50:00.040Z,12.74
2018-10-03T07:51:00.027Z,12.71
2018-10-03T07:52:00.020Z,12.77
2018-10-03T07:53:00.006Z,12.96
2018-10-03T07:54:00.038Z,13.03
2018-10-03T07:54:59.977Z,12.97
2018-10-03T07:55:59.970Z,13.11
2018-10-03T07:56:59.963Z,13.14
2018-10-03T07:57:59.952Z,13.12
2018-10-03T07:59:00.071Z,13.18
2018-10-03T07:59:59.928Z,13.07
2018-10-03T08:00:59.920Z,13.07
2018-10-03T08:01:59.921Z,13.07
2018-10-03T08:02:59.894Z,13.11
2018-10-03T08:03:59.903Z,13.14
2018-10-03T08:04:59.879Z,13.18
2018-10-03T08:05:59.858Z,13.18
2018-10-03T08:06:59.847Z,13.15
2018-10-03T08:07:59.841Z,13.24
2018-10-03T08:08:59.867Z,13.27
2018-10-03T08:09:59.884Z,13.17
2018-10-03T08:10:59.809Z,13.21
2018-10-03T08:11:59.793Z,13.18
2018-10-03T08:12:59.787Z,13.24
2018-10-03T08:13:59.791Z,13.17
2018-10-03T08:14:59.771Z,13.20
2018-10-03T08:15:59.761Z,13.22
2018-10-03T08:16:59.738Z,13.22
2018-10-03T08:17:59.729Z,13.22
2018-10-03T08:18:59.743Z,13.25
2018-10-03T08:19:59.707Z,13.22
2018-10-03T08:20:59.719Z,13.21
2018-10-03T08:21:59.702Z,13.22
2018-10-03T08:22:59.674Z,13.24
2018-10-03T08:23:59.662Z,13.25
2018-10-03T08:24:59.673Z,13.22
2018-10-03T08:25:59.638Z,13.29
2018-10-03T08:26:59.628Z,13.30
2018-10-03T08:27:59.656Z,13.27
2018-10-03T08:28:59.612Z,13.25
2018-10-03T08:29:59.683Z,13.18
2018-10-03T08:30:59.589Z,13.14
2018-10-03T08:31:59.573Z,13.12
2018-10-03T08:32:59.746Z,13.02
2018-10-03T08:33:59.552Z,12.95
2018-10-03T08:34:59.566Z,13.00
2018-10-03T08:35:59.528Z,13.02
2018-10-03T08:36:59.525Z,13.17
2018-10-03T08:37:59.511Z,13.06
2018-10-03T08:38:59.500Z,13.07
2018-10-03T08:39:59.536Z,13.12
2018-10-03T08:40:59.478Z,13.21
2018-10-03T08:41:59.467Z,13.29
2018-10-03T08:42:59.453Z,13.44
2018-10-03T08:43:59.444Z,13.52
2018-10-03T08:44:59.462Z,13.43
2018-10-03T08:45:59.437Z,13.47
2018-10-03T08:46:59.412Z,13.41
2018-10-03T08:47:59.402Z,13.54
2018-10-03T08:48:59.386Z,13.56
2018-10-03T08:49:59.398Z,13.54
2018-10-03T08:50:59.368Z,13.58
2018-10-03T08:51:59.431Z,13.54
2018-10-03T08:52:59.350Z,13.56
2018-10-03T08:53:59.332Z,13.70
2018-10-03T08:54:59.342Z,13.74
2018-10-03T08:55:59.305Z,13.74
2018-10-03T08:56:59.301Z,13.67
2018-10-03T08:57:59.357Z,13.70
2018-10-03T08:58:59.292Z,13.89
2018-10-03T08:59:59.289Z,13.83
2018-10-03T09:00:59.253Z,13.87
2018-10-03T09:01:59.243Z,13.83
2018-10-03T09:02:59.233Z,13.88
2018-10-03T09:03:59.226Z,13.69
2018-10-03T09:04:59.239Z,13.62
2018-10-03T09:05:59.197Z,13.67
2018-10-03T09:06:59.209Z,13.71
2018-10-03T09:07:59.178Z,13.81
2018-10-03T09:08:59.165Z,13.80
2018-10-03T09:09:59.179Z,13.80
2018-10-03T09:10:59.148Z,13.71
2018-10-03T09:11:59.136Z,13.80
2018-10-03T09:12:59.141Z,13.80
2018-10-03T09:13:59.110Z,13.83
2018-10-03T09:14:59.120Z,13.54
2018-10-03T09:15:59.085Z,13.41
2018-10-03T09:16:59.078Z,13.49
2018-10-03T09:17:59.065Z,13.46
2018-10-03T09:18:59.078Z,13.41
2018-10-03T09:19:59.065Z,13.61
2018-10-03T09:20:59.039Z,13.74
2018-10-03T09:21:59.096Z,13.70
2018-10-03T09:22:59.010Z,13.73
2018-10-03T09:23:58.997Z,13.79
2018-10-03T09:24:59.028Z,13.76
2018-10-03T09:25:58.975Z,13.80
2018-10-03T09:26:58.968Z,13.74
2018-10-03T09:27:58.959Z,13.84
2018-10-03T09:28:58.956Z,13.79
2018-10-03T09:29:58.953Z,13.79
2018-10-03T09:30:58.920Z,13.87
2018-10-03T09:31:58.909Z,13.79
2018-10-03T09:32:58.915Z,13.79
2018-10-03T09:33:58.940Z,13.89
2018-10-03T09:34:58.898Z,13.96
2018-10-03T09:35:58.865Z,13.99
2018-10-03T09:36:58.859Z,13.92
2018-10-03T09:37:58.851Z,13.96
2018-10-03T09:38:58.847Z,13.94
2018-10-03T09:39:58.845Z,13.89
2018-10-03T09:40:58.811Z,13.84
2018-10-03T09:41:58.801Z,13.81
2018-10-03T09:42:58.785Z,13.87
2018-10-03T09:43:58.778Z,13.79
2018-10-03T09:44:58.806Z,13.96
2018-10-03T09:45:58.755Z,14.06
2018-10-03T09:46:58.746Z,14.10
2018-10-03T09:47:58.735Z,14.07
2018-10-03T09:48:58.722Z,13.99
2018-10-03T09:49:58.733Z,13.99
2018-10-03T09:50:58.715Z,13.94
2018-10-03T09:51:58.716Z,13.91
2018-10-03T09:52:58.677Z,14.04
2018-10-03T09:53:58.666Z,14.10
2018-10-03T09:54:58.676Z,14.19
2018-10-03T09:55:58.642Z,14.37
2018-10-03T09:56:58.635Z,14.38
2018-10-03T09:57:58.624Z,14.49
2018-10-03T09:58:58.630Z,14.56
2018-10-03T09:59:58.618Z,14.60
2018-10-03T10:00:58.656Z,14.52
2018-10-03T10:01:58.579Z,14.49
2018-10-03T10:02:58.565Z,14.34
2018-10-03T10:03:58.551Z,14.24
2018-10-03T10:04:58.569Z,14.31
2018-10-03T10:05:58.553Z,14.16
2018-10-03T10:06:58.518Z,14.16
2018-10-03T10:07:58.510Z,14.25
2018-10-03T10:08:58.496Z,14.32
2018-10-03T10:09:58.481Z,14.32
2018-10-03T10:10:58.522Z,14.37
2018-10-03T10:11:58.471Z,14.39
2018-10-03T10:12:58.487Z,14.53
2018-10-03T10:13:58.439Z,14.53
2018-10-03T10:14:58.426Z,14.53
2018-10-03T10:15:58.443Z,14.52
2018-10-03T10:16:58.404Z,14.61
2018-10-03T10:17:58.393Z,14.68
2018-10-03T10:18:58.399Z,14.54
2018-10-03T10:19:58.386Z,14.53
2018-10-03T10:20:58.420Z,14.53
2018-10-03T10:21:58.352Z,14.39
2018-10-03T10:22:58.336Z,14.35
2018-10-03T10:23:58.323Z,14.32
2018-10-03T10:24:58.320Z,14.35
2018-10-03T10:25:58.330Z,14.46
2018-10-03T10:26:58.377Z,14.47
2018-10-03T10:27:58.307Z,14.46
2018-10-03T10:28:58.284Z,14.57
2018-10-03T10:29:58.318Z,14.54
2018-10-03T10:30:58.281Z,14.44
2018-10-03T10:31:58.300Z,14.44
2018-10-03T10:32:58.362Z,14.47
2018-10-03T10:33:58.230Z,14.39
2018-10-03T10:34:58.215Z,14.29
2018-10-03T10:35:58.223Z,14.16
2018-10-03T10:36:58.217Z,14.02
2018-10-03T10:37:58.197Z,13.96
2018-10-03T10:38:58.171Z,13.99
2018-10-03T10:39:58.180Z,14.04
2018-10-03T10:40:58.243Z,14.02
2018-10-03T10:41:58.126Z,13.95
2018-10-03T10:42:58.119Z,14.02
2018-10-03T10:43:58.114Z,14.13
2018-10-03T10:44:58.094Z,14.20
2018-10-03T10:45:58.105Z,14.20
2018-10-03T10:46:58.080Z,14.20
2018-10-03T10:47:58.071Z,14.20
2018-10-03T10:48:58.049Z,14.29
2018-10-03T10:49:58.049Z,14.29
2018-10-03T10:50:58.050Z,14.35
2018-10-03T10:51:58.015Z,14.28
2018-10-03T10:52:58.003Z,14.20
2018-10-03T10:53:57.991Z,14.29
2018-10-03T10:54:57.977Z,14.34
2018-10-03T10:55:57.996Z,14.32
2018-10-03T10:56:57.958Z,14.37
2018-10-03T10:57:57.957Z,14.28
2018-10-03T10:58:57.941Z,14.25
2018-10-03T10:59:57.922Z,14.12
2018-10-03T11:00:57.941Z,14.12
2018-10-03T11:01:57.923Z,14.12
2018-10-03T11:02:57.891Z,14.20
2018-10-03T11:03:57.881Z,14.13
2018-10-03T11:04:57.869Z,14.12
2018-10-03T11:05:57.877Z,14.01
2018-10-03T11:06:57.847Z,13.99
2018-10-03T11:07:57.873Z,14.04
2018-10-03T11:08:57.832Z,14.04
2018-10-03T11:09:57.815Z,14.01
2018-10-03T11:10:57.829Z,13.99
2018-10-03T11:11:57.796Z,14.10
2018-10-03T11:12:57.784Z,14.19
2018-10-03T11:13:57.776Z,14.25
2018-10-03T11:14:57.767Z,14.47
2018-10-03T11:15:57.795Z,14.50
2018-10-03T11:16:57.854Z,14.56
2018-10-03T11:17:57.727Z,14.54
2018-10-03T11:18:57.716Z,14.68
2018-10-03T11:19:57.715Z,14.67
2018-10-03T11:20:57.715Z,14.52
2018-10-03T11:21:57.693Z,14.57
2018-10-03T11:22:57.674Z,14.52
2018-10-03T11:23:57.843Z,14.50
2018-10-03T11:24:57.854Z,14.47
2018-10-03T11:25:57.661Z,14.46
2018-10-03T11:26:57.626Z,14.64
2018-10-03T11:27:57.637Z,14.71
2018-10-03T11:28:57.610Z,14.87
2018-10-03T11:29:57.593Z,14.88
2018-10-03T11:30:57.607Z,15.02
2018-10-03T11:31:57.571Z,15.05
2018-10-03T11:32:57.559Z,14.98
2018-10-03T11:33:57.565Z,14.99
2018-10-03T11:34:57.536Z,14.87
2018-10-03T11:35:57.549Z,14.88
2018-10-03T11:36:57.515Z,14.86
2018-10-03T11:37:57.506Z,14.83
2018-10-03T11:38:57.494Z,14.53
2018-10-03T11:39:57.500Z,14.54
2018-10-03T11:40:57.493Z,14.56
2018-10-03T11:41:57.455Z,14.52
2018-10-03T11:42:57.468Z,14.49
2018-10-03T11:43:57.443Z,14.61
2018-10-03T11:44:57.428Z,14.50
2018-10-03T11:45:57.438Z,14.39
2018-10-03T11:46:57.414Z,14.49
2018-10-03T11:47:57.393Z,14.44
2018-10-03T11:48:57.382Z,14.54
2018-10-03T11:49:57.388Z,14.53
2018-10-03T11:50:57.365Z,14.56
2018-10-03T11:51:57.369Z,14.53
2018-10-03T11:52:57.359Z,14.54
2018-10-03T11:53:57.327Z,14.65
2018-10-03T11:54:57.317Z,14.71
2018-10-03T11:55:57.305Z,14.86
2018-10-03T11:56:57.355Z,14.88
2018-10-03T11:57:57.292Z,15.05
2018-10-03T11:58:57.266Z,15.08
2018-10-03T11:59:57.260Z,15.05
2018-10-03T12:00:57.266Z,15.06
2018-10-03T12:01:57.257Z,15.06
2018-10-03T12:02:57.314Z,15.09
2018-10-03T12:03:57.215Z,15.13
2018-10-03T12:04:57.197Z,14.98
2018-10-03T12:05:57.191Z,15.08
2018-10-03T12:06:57.218Z,15.08
2018-10-03T12:07:57.166Z,15.12
2018-10-03T12:08:57.155Z,15.17
2018-10-03T12:09:57.149Z,15.17
2018-10-03T12:10:57.135Z,15.23
2018-10-03T12:11:57.141Z,15.31
2018-10-03T12:12:57.147Z,15.27
2018-10-03T12:13:57.099Z,15.39
2018-10-03T12:14:57.090Z,15.42
2018-10-03T12:15:57.074Z,15.60
2018-10-03T12:16:57.094Z,15.43
2018-10-03T12:17:57.051Z,15.54
2018-10-03T12:18:57.040Z,15.39
2018-10-03T12:19:57.041Z,15.39
2018-10-03T12:20:57.026Z,15.31
2018-10-03T12:21:57.034Z,15.21
2018-10-03T12:22:56.998Z,15.26
2018-10-03T12:23:56.986Z,15.27
2018-10-03T12:24:56.983Z,15.23
2018-10-03T12:25:56.983Z,15.13
2018-10-03T12:26:56.973Z,15.17
2018-10-03T12:27:56.940Z,14.99
2018-10-03T12:28:56.931Z,14.98
2018-10-03T12:29:56.925Z,15.08
2018-10-03T12:30:56.908Z,14.91
2018-10-03T12:31:56.955Z,14.87
2018-10-03T12:32:56.889Z,14.84
2018-10-03T12:33:56.949Z,14.80
2018-10-03T12:34:56.867Z,14.67
2018-10-03T12:35:56.851Z,14.67
2018-10-03T12:36:56.863Z,14.72
2018-10-03T12:37:56.855Z,14.87
2018-10-03T12:38:56.827Z,14.94
2018-10-03T12:39:56.808Z,14.90
2018-10-03T12:40:56.796Z,15.06
2018-10-03T12:41:56.814Z,15.12
2018-10-03T12:42:56.775Z,15.12
2018-10-03T12:43:56.782Z,15.19
2018-10-03T12:44:56.771Z,15.20
2018-10-03T12:45:56.743Z,15.12
2018-10-03T12:46:56.757Z,15.24
2018-10-03T12:47:56.720Z,15.33
2018-10-03T12:48:56.707Z,15.35
2018-10-03T12:49:56.723Z,15.43
2018-10-03T12:50:56.688Z,15.36
2018-10-03T12:51:56.698Z,15.36